Terminal Aerodrome Forecast
Issued by NWS Sterling, VA

Home | Current Version | Previous Version | Text Only | Print | Product List | Glossary On
Versions: 1 2 3 4 5 6 7 8 9 10 11 12 13 14 15 16 17 18 19 20 21 22
429
FTUS41 KLWX 261743
TAFDCA
TAF
KDCA 261743Z 2618/2718 17009KT P6SM SCT025 OVC040
     FM270300 19009KT P6SM -SHRA SCT025 OVC030
     FM270700 24006KT 6SM -SHRA BKN015 OVC025
     FM270900 29006KT 5SM BR BKN020 OVC035
     FM271200 33005KT P6SM BKN030 BKN040
     FM271500 34004KT P6SM BKN040 BKN050=

USA.gov is the U.S. government's official web portal to all federal, state and local government web resources and services.